sensor_id;sensor_type;location;lat;lon;timestamp;P1;durP1;ratioP1;P2;durP2;ratioP2
2892;SDS011;1456;51.840;12.184;2022-10-31T00:01:44;1.40;;;1.30;;
2892;SDS011;1456;51.840;12.184;2022-10-31T00:06:38;10.07;;;5.67;;
2892;SDS011;1456;51.840;12.184;2022-10-31T00:09:04;4.50;;;4.20;;
2892;SDS011;1456;51.840;12.184;2022-10-31T00:11:32;3.50;;;3.30;;
2892;SDS011;1456;51.840;12.184;2022-10-31T00:14:06;3.83;;;3.73;;
2892;SDS011;1456;51.840;12.184;2022-10-31T00:16:32;4.67;;;3.27;;
2892;SDS011;1456;51.840;12.184;2022-10-31T00:18:59;2.17;;;2.07;;
2892;SDS011;1456;51.840;12.184;2022-10-31T00:21:29;2.90;;;2.73;;
2892;SDS011;1456;51.840;12.184;2022-10-31T00:23:56;2.77;;;2.47;;
2892;SDS011;1456;51.840;12.184;2022-10-31T00:26:22;1.67;;;1.57;;
2892;SDS011;1456;51.840;12.184;2022-10-31T00:28:48;3.93;;;3.40;;
2892;SDS011;1456;51.840;12.184;2022-10-31T00:31:14;2.73;;;2.60;;
2892;SDS011;1456;51.840;12.184;2022-10-31T00:33:40;2.40;;;2.30;;
2892;SDS011;1456;51.840;12.184;2022-10-31T00:36:07;2.80;;;2.60;;
2892;SDS011;1456;51.840;12.184;2022-10-31T00:41:05;3.27;;;2.93;;
2892;SDS011;1456;51.840;12.184;2022-10-31T00:43:37;3.50;;;3.30;;
2892;SDS011;1456;51.840;12.184;2022-10-31T00:48:36;2.47;;;2.27;;
2892;SDS011;1456;51.840;12.184;2022-10-31T00:51:11;3.00;;;2.80;;
2892;SDS011;1456;51.840;12.184;2022-10-31T00:53:40;4.40;;;2.10;;
2892;SDS011;1456;51.840;12.184;2022-10-31T00:56:06;3.17;;;3.07;;
2892;SDS011;1456;51.840;12.184;2022-10-31T01:01:04;2.27;;;2.03;;
2892;SDS011;1456;51.840;12.184;2022-10-31T01:06:04;2.27;;;1.87;;
2892;SDS011;1456;51.840;12.184;2022-10-31T01:08:35;3.20;;;3.03;;
2892;SDS011;1456;51.840;12.184;2022-10-31T01:11:10;2.57;;;2.43;;
2892;SDS011;1456;51.840;12.184;2022-10-31T01:13:50;2.07;;;1.80;;
2892;SDS011;1456;51.840;12.184;2022-10-31T01:18:49;1.80;;;1.80;;
2892;SDS011;1456;51.840;12.184;2022-10-31T01:21:19;3.90;;;3.57;;
2892;SDS011;1456;51.840;12.184;2022-10-31T01:23:46;5.93;;;3.97;;
2892;SDS011;1456;51.840;12.184;2022-10-31T01:26:16;2.53;;;2.43;;
2892;SDS011;1456;51.840;12.184;2022-10-31T01:31:37;3.17;;;2.70;;
2892;SDS011;1456;51.840;12.184;2022-10-31T01:34:14;1.57;;;1.33;;
2892;SDS011;1456;51.840;12.184;2022-10-31T01:36:41;4.17;;;3.97;;
2892;SDS011;1456;51.840;12.184;2022-10-31T01:39:12;2.57;;;2.47;;
2892;SDS011;1456;51.840;12.184;2022-10-31T01:41:42;4.43;;;3.20;;
2892;SDS011;1456;51.840;12.184;2022-10-31T01:46:51;4.07;;;3.87;;
2892;SDS011;1456;51.840;12.184;2022-10-31T01:49:57;1.90;;;1.80;;
2892;SDS011;1456;51.840;12.184;2022-10-31T01:52:25;1.23;;;1.23;;
2892;SDS011;1456;51.840;12.184;2022-10-31T01:55:04;2.70;;;2.43;;
2892;SDS011;1456;51.840;12.184;2022-10-31T01:57:33;2.73;;;2.63;;
2892;SDS011;1456;51.840;12.184;2022-10-31T02:00:12;2.90;;;2.80;;
2892;SDS011;1456;51.840;12.184;2022-10-31T02:02:40;1.10;;;1.10;;
2892;SDS011;1456;51.840;12.184;2022-10-31T02:05:08;1.27;;;1.27;;
2892;SDS011;1456;51.840;12.184;2022-10-31T02:10:43;4.63;;;3.43;;
2892;SDS011;1456;51.840;12.184;2022-10-31T02:13:13;1.50;;;1.40;;
2892;SDS011;1456;51.840;12.184;2022-10-31T02:15:39;1.47;;;1.37;;
2892;SDS011;1456;51.840;12.184;2022-10-31T02:18:17;3.73;;;3.43;;
2892;SDS011;1456;51.840;12.184;2022-10-31T02:32:18;1.43;;;1.33;;
2892;SDS011;1456;51.840;12.184;2022-10-31T02:37:51;2.50;;;1.83;;
2892;SDS011;1456;51.840;12.184;2022-10-31T02:40:32;2.37;;;2.13;;
2892;SDS011;1456;51.840;12.184;2022-10-31T02:43:10;1.03;;;1.03;;
2892;SDS011;1456;51.840;12.184;2022-10-31T02:45:56;4.20;;;3.13;;
2892;SDS011;1456;51.840;12.184;2022-10-31T02:51:18;1.87;;;1.87;;
2892;SDS011;1456;51.840;12.184;2022-10-31T02:53:46;1.27;;;1.27;;
2892;SDS011;1456;51.840;12.184;2022-10-31T02:56:17;2.20;;;1.43;;
2892;SDS011;1456;51.840;12.184;2022-10-31T02:58:49;1.10;;;1.10;;
2892;SDS011;1456;51.840;12.184;2022-10-31T03:10:31;2.27;;;2.07;;
2892;SDS011;1456;51.840;12.184;2022-10-31T03:13:09;1.00;;;1.00;;
2892;SDS011;1456;51.840;12.184;2022-10-31T03:15:57;0.67;;;0.67;;
2892;SDS011;1456;51.840;12.184;2022-10-31T03:19:02;0.97;;;0.97;;
2892;SDS011;1456;51.840;12.184;2022-10-31T03:24:20;0.97;;;0.97;;
2892;SDS011;1456;51.840;12.184;2022-10-31T03:26:51;1.90;;;1.57;;
2892;SDS011;1456;51.840;12.184;2022-10-31T03:35:16;0.77;;;0.77;;
2892;SDS011;1456;51.840;12.184;2022-10-31T03:37:46;1.27;;;1.27;;
2892;SDS011;1456;51.840;12.184;2022-10-31T03:40:14;0.80;;;0.80;;
2892;SDS011;1456;51.840;12.184;2022-10-31T03:42:43;2.30;;;2.10;;
2892;SDS011;1456;51.840;12.184;2022-10-31T03:47:55;1.00;;;1.00;;
2892;SDS011;1456;51.840;12.184;2022-10-31T03:50:24;0.97;;;0.97;;
2892;SDS011;1456;51.840;12.184;2022-10-31T03:52:57;1.67;;;1.40;;
2892;SDS011;1456;51.840;12.184;2022-10-31T03:58:22;0.87;;;0.87;;
2892;SDS011;1456;51.840;12.184;2022-10-31T04:03:45;1.27;;;1.27;;
2892;SDS011;1456;51.840;12.184;2022-10-31T04:06:11;1.43;;;1.43;;
2892;SDS011;1456;51.840;12.184;2022-10-31T04:08:48;2.30;;;2.30;;
2892;SDS011;1456;51.840;12.184;2022-10-31T04:11:19;1.70;;;1.60;;
2892;SDS011;1456;51.840;12.184;2022-10-31T04:13:52;1.57;;;1.47;;
2892;SDS011;1456;51.840;12.184;2022-10-31T04:16:21;0.60;;;0.60;;
2892;SDS011;1456;51.840;12.184;2022-10-31T04:18:56;1.10;;;1.00;;
2892;SDS011;1456;51.840;12.184;2022-10-31T04:21:28;1.47;;;0.97;;
2892;SDS011;1456;51.840;12.184;2022-10-31T04:23:56;9.43;;;2.20;;
2892;SDS011;1456;51.840;12.184;2022-10-31T04:26:25;0.97;;;0.97;;
2892;SDS011;1456;51.840;12.184;2022-10-31T04:28:53;0.87;;;0.87;;
2892;SDS011;1456;51.840;12.184;2022-10-31T04:31:18;1.30;;;1.30;;
2892;SDS011;1456;51.840;12.184;2022-10-31T04:36:15;2.17;;;2.07;;
2892;SDS011;1456;51.840;12.184;2022-10-31T04:38:43;1.67;;;1.57;;
2892;SDS011;1456;51.840;12.184;2022-10-31T04:41:10;1.47;;;1.37;;
2892;SDS011;1456;51.840;12.184;2022-10-31T04:43:48;1.50;;;1.40;;
2892;SDS011;1456;51.840;12.184;2022-10-31T04:46:25;0.80;;;0.80;;
2892;SDS011;1456;51.840;12.184;2022-10-31T04:51:36;1.70;;;1.70;;
2892;SDS011;1456;51.840;12.184;2022-10-31T04:54:14;2.97;;;1.57;;
2892;SDS011;1456;51.840;12.184;2022-10-31T04:56:39;3.03;;;2.20;;
2892;SDS011;1456;51.840;12.184;2022-10-31T04:59:05;1.20;;;1.10;;
2892;SDS011;1456;51.840;12.184;2022-10-31T05:01:35;3.03;;;2.10;;
2892;SDS011;1456;51.840;12.184;2022-10-31T05:04:02;1.90;;;1.47;;
2892;SDS011;1456;51.840;12.184;2022-10-31T05:09:00;3.93;;;3.10;;
2892;SDS011;1456;51.840;12.184;2022-10-31T05:14:02;0.57;;;0.57;;
2892;SDS011;1456;51.840;12.184;2022-10-31T05:16:37;2.70;;;2.00;;
2892;SDS011;1456;51.840;12.184;2022-10-31T05:19:03;1.77;;;1.70;;
2892;SDS011;1456;51.840;12.184;2022-10-31T05:21:32;1.13;;;1.00;;
2892;SDS011;1456;51.840;12.184;2022-10-31T05:24:08;1.00;;;1.00;;
2892;SDS011;1456;51.840;12.184;2022-10-31T05:26:43;1.43;;;1.00;;
2892;SDS011;1456;51.840;12.184;2022-10-31T05:29:11;0.67;;;0.67;;
2892;SDS011;1456;51.840;12.184;2022-10-31T05:34:30;1.00;;;1.00;;
2892;SDS011;1456;51.840;12.184;2022-10-31T05:36:56;1.57;;;1.50;;
2892;SDS011;1456;51.840;12.184;2022-10-31T05:39:30;2.17;;;2.07;;
2892;SDS011;1456;51.840;12.184;2022-10-31T05:41:57;1.93;;;1.43;;
2892;SDS011;1456;51.840;12.184;2022-10-31T05:44:34;3.03;;;1.27;;
2892;SDS011;1456;51.840;12.184;2022-10-31T05:47:00;0.93;;;0.93;;
2892;SDS011;1456;51.840;12.184;2022-10-31T05:49:29;3.37;;;1.47;;
2892;SDS011;1456;51.840;12.184;2022-10-31T05:52:02;1.00;;;0.90;;
2892;SDS011;1456;51.840;12.184;2022-10-31T05:54:44;1.10;;;1.10;;
2892;SDS011;1456;51.840;12.184;2022-10-31T05:57:15;0.70;;;0.70;;
2892;SDS011;1456;51.840;12.184;2022-10-31T06:02:10;3.83;;;2.00;;
2892;SDS011;1456;51.840;12.184;2022-10-31T06:04:36;1.23;;;1.03;;
2892;SDS011;1456;51.840;12.184;2022-10-31T06:07:05;1.97;;;1.87;;
2892;SDS011;1456;51.840;12.184;2022-10-31T06:09:30;0.90;;;0.90;;
2892;SDS011;1456;51.840;12.184;2022-10-31T06:11:57;1.33;;;1.23;;
2892;SDS011;1456;51.840;12.184;2022-10-31T06:14:23;2.07;;;1.97;;
2892;SDS011;1456;51.840;12.184;2022-10-31T06:16:49;1.33;;;1.33;;
2892;SDS011;1456;51.840;12.184;2022-10-31T06:19:22;1.43;;;1.33;;
2892;SDS011;1456;51.840;12.184;2022-10-31T06:21:47;2.00;;;1.53;;
2892;SDS011;1456;51.840;12.184;2022-10-31T06:24:16;0.90;;;0.90;;
2892;SDS011;1456;51.840;12.184;2022-10-31T06:29:20;0.90;;;0.90;;
2892;SDS011;1456;51.840;12.184;2022-10-31T06:31:54;1.13;;;1.13;;
2892;SDS011;1456;51.840;12.184;2022-10-31T06:34:19;1.83;;;1.73;;
2892;SDS011;1456;51.840;12.184;2022-10-31T06:36:48;0.77;;;0.77;;
2892;SDS011;1456;51.840;12.184;2022-10-31T06:39:16;0.90;;;0.90;;
2892;SDS011;1456;51.840;12.184;2022-10-31T06:41:42;1.67;;;1.57;;
2892;SDS011;1456;51.840;12.184;2022-10-31T06:44:08;1.80;;;1.67;;
2892;SDS011;1456;51.840;12.184;2022-10-31T06:46:36;0.93;;;0.93;;
2892;SDS011;1456;51.840;12.184;2022-10-31T06:49:03;2.90;;;1.90;;
2892;SDS011;1456;51.840;12.184;2022-10-31T06:51:29;0.57;;;0.57;;
2892;SDS011;1456;51.840;12.184;2022-10-31T06:54:01;0.70;;;0.70;;
2892;SDS011;1456;51.840;12.184;2022-10-31T06:56:33;0.70;;;0.70;;
2892;SDS011;1456;51.840;12.184;2022-10-31T06:59:09;0.60;;;0.60;;
2892;SDS011;1456;51.840;12.184;2022-10-31T07:01:35;1.23;;;1.23;;
2892;SDS011;1456;51.840;12.184;2022-10-31T07:04:07;2.00;;;1.07;;
2892;SDS011;1456;51.840;12.184;2022-10-31T07:06:42;1.27;;;1.27;;
2892;SDS011;1456;51.840;12.184;2022-10-31T07:09:10;1.10;;;1.10;;
2892;SDS011;1456;51.840;12.184;2022-10-31T07:11:38;2.50;;;2.40;;
2892;SDS011;1456;51.840;12.184;2022-10-31T07:19:15;1.40;;;1.30;;
2892;SDS011;1456;51.840;12.184;2022-10-31T07:21:42;2.20;;;1.40;;
2892;SDS011;1456;51.840;12.184;2022-10-31T07:24:07;2.63;;;2.43;;
2892;SDS011;1456;51.840;12.184;2022-10-31T07:26:36;1.30;;;1.17;;
2892;SDS011;1456;51.840;12.184;2022-10-31T07:29:02;1.13;;;1.13;;
2892;SDS011;1456;51.840;12.184;2022-10-31T07:31:29;1.30;;;1.30;;
2892;SDS011;1456;51.840;12.184;2022-10-31T07:34:02;1.07;;;1.07;;
2892;SDS011;1456;51.840;12.184;2022-10-31T07:36:28;9.17;;;1.53;;
2892;SDS011;1456;51.840;12.184;2022-10-31T07:41:24;1.80;;;1.70;;
2892;SDS011;1456;51.840;12.184;2022-10-31T07:43:50;8.43;;;2.93;;
2892;SDS011;1456;51.840;12.184;2022-10-31T07:46:17;1.17;;;1.07;;
2892;SDS011;1456;51.840;12.184;2022-10-31T07:48:44;1.53;;;1.47;;
2892;SDS011;1456;51.840;12.184;2022-10-31T07:51:10;0.77;;;0.77;;
2892;SDS011;1456;51.840;12.184;2022-10-31T07:53:36;1.20;;;1.13;;
2892;SDS011;1456;51.840;12.184;2022-10-31T07:56:04;0.60;;;0.50;;
2892;SDS011;1456;51.840;12.184;2022-10-31T07:58:31;0.80;;;0.70;;
2892;SDS011;1456;51.840;12.184;2022-10-31T08:00:59;0.90;;;0.90;;
2892;SDS011;1456;51.840;12.184;2022-10-31T08:03:26;1.13;;;1.13;;
2892;SDS011;1456;51.840;12.184;2022-10-31T08:05:53;0.80;;;0.80;;
2892;SDS011;1456;51.840;12.184;2022-10-31T08:08:19;1.47;;;1.40;;
2892;SDS011;1456;51.840;12.184;2022-10-31T08:10:48;4.33;;;1.83;;
2892;SDS011;1456;51.840;12.184;2022-10-31T08:13:14;0.70;;;0.70;;
2892;SDS011;1456;51.840;12.184;2022-10-31T08:18:15;2.20;;;0.60;;
2892;SDS011;1456;51.840;12.184;2022-10-31T08:20:46;13.23;;;1.20;;
2892;SDS011;1456;51.840;12.184;2022-10-31T08:23:12;1.37;;;1.27;;
2892;SDS011;1456;51.840;12.184;2022-10-31T08:25:40;1.47;;;1.20;;
2892;SDS011;1456;51.840;12.184;2022-10-31T08:28:08;13.03;;;1.77;;
2892;SDS011;1456;51.840;12.184;2022-10-31T08:33:08;2.40;;;2.30;;
2892;SDS011;1456;51.840;12.184;2022-10-31T08:35:47;2.63;;;2.47;;
2892;SDS011;1456;51.840;12.184;2022-10-31T08:38:14;5.70;;;2.67;;
2892;SDS011;1456;51.840;12.184;2022-10-31T08:40:41;1.83;;;1.73;;
2892;SDS011;1456;51.840;12.184;2022-10-31T08:45:47;2.93;;;2.83;;
2892;SDS011;1456;51.840;12.184;2022-10-31T08:48:14;4.10;;;3.80;;
2892;SDS011;1456;51.840;12.184;2022-10-31T08:50:43;4.07;;;3.70;;
2892;SDS011;1456;51.840;12.184;2022-10-31T08:53:16;3.50;;;3.40;;
2892;SDS011;1456;51.840;12.184;2022-10-31T08:55:43;5.70;;;4.57;;
2892;SDS011;1456;51.840;12.184;2022-10-31T08:58:13;5.83;;;5.53;;
2892;SDS011;1456;51.840;12.184;2022-10-31T09:00:44;6.27;;;5.67;;
2892;SDS011;1456;51.840;12.184;2022-10-31T09:03:13;2.90;;;2.80;;
2892;SDS011;1456;51.840;12.184;2022-10-31T09:06:01;4.00;;;3.70;;
2892;SDS011;1456;51.840;12.184;2022-10-31T09:08:31;3.50;;;3.13;;
2892;SDS011;1456;51.840;12.184;2022-10-31T09:11:03;4.33;;;4.13;;
2892;SDS011;1456;51.840;12.184;2022-10-31T09:13:32;8.47;;;6.07;;
2892;SDS011;1456;51.840;12.184;2022-10-31T09:15:58;6.90;;;4.47;;
2892;SDS011;1456;51.840;12.184;2022-10-31T09:18:24;4.57;;;4.23;;
2892;SDS011;1456;51.840;12.184;2022-10-31T09:20:58;13.53;;;5.33;;
2892;SDS011;1456;51.840;12.184;2022-10-31T09:23:26;14.80;;;4.70;;
2892;SDS011;1456;51.840;12.184;2022-10-31T09:26:03;12.53;;;6.23;;
2892;SDS011;1456;51.840;12.184;2022-10-31T09:28:29;10.13;;;5.43;;
2892;SDS011;1456;51.840;12.184;2022-10-31T09:30:54;7.10;;;6.30;;
2892;SDS011;1456;51.840;12.184;2022-10-31T09:33:20;4.23;;;2.53;;
2892;SDS011;1456;51.840;12.184;2022-10-31T09:35:59;4.80;;;4.50;;
2892;SDS011;1456;51.840;12.184;2022-10-31T09:38:27;4.23;;;3.87;;
2892;SDS011;1456;51.840;12.184;2022-10-31T09:41:07;4.87;;;4.40;;
2892;SDS011;1456;51.840;12.184;2022-10-31T09:44:30;5.20;;;4.90;;
2892;SDS011;1456;51.840;12.184;2022-10-31T09:49:48;3.30;;;3.13;;
2892;SDS011;1456;51.840;12.184;2022-10-31T09:52:31;7.80;;;6.00;;
2892;SDS011;1456;51.840;12.184;2022-10-31T09:57:34;5.77;;;5.33;;
2892;SDS011;1456;51.840;12.184;2022-10-31T10:00:19;5.63;;;5.23;;
2892;SDS011;1456;51.840;12.184;2022-10-31T10:06:01;4.37;;;4.07;;
2892;SDS011;1456;51.840;12.184;2022-10-31T10:08:40;6.23;;;5.83;;
2892;SDS011;1456;51.840;12.184;2022-10-31T10:14:12;6.23;;;5.57;;
2892;SDS011;1456;51.840;12.184;2022-10-31T10:23:13;4.60;;;4.37;;
2892;SDS011;1456;51.840;12.184;2022-10-31T10:26:03;3.97;;;3.70;;
2892;SDS011;1456;51.840;12.184;2022-10-31T10:31:57;6.33;;;3.80;;
2892;SDS011;1456;51.840;12.184;2022-10-31T10:34:32;5.13;;;4.83;;
2892;SDS011;1456;51.840;12.184;2022-10-31T10:37:36;4.30;;;4.10;;
2892;SDS011;1456;51.840;12.184;2022-10-31T10:40:06;6.07;;;5.67;;
2892;SDS011;1456;51.840;12.184;2022-10-31T10:42:42;4.87;;;3.80;;
2892;SDS011;1456;51.840;12.184;2022-10-31T10:45:36;3.70;;;3.60;;
2892;SDS011;1456;51.840;12.184;2022-10-31T10:59:33;11.03;;;5.83;;
2892;SDS011;1456;51.840;12.184;2022-10-31T11:04:47;6.57;;;6.00;;
2892;SDS011;1456;51.840;12.184;2022-10-31T11:07:36;5.87;;;5.17;;
2892;SDS011;1456;51.840;12.184;2022-10-31T11:10:11;5.17;;;4.87;;
2892;SDS011;1456;51.840;12.184;2022-10-31T11:18:22;4.70;;;4.47;;
2892;SDS011;1456;51.840;12.184;2022-10-31T11:20:54;4.87;;;3.93;;
2892;SDS011;1456;51.840;12.184;2022-10-31T11:23:23;4.20;;;4.00;;
2892;SDS011;1456;51.840;12.184;2022-10-31T11:26:03;8.00;;;5.43;;
2892;SDS011;1456;51.840;12.184;2022-10-31T11:28:31;7.07;;;6.33;;
2892;SDS011;1456;51.840;12.184;2022-10-31T11:31:00;5.07;;;4.80;;
2892;SDS011;1456;51.840;12.184;2022-10-31T11:33:44;7.47;;;6.87;;
2892;SDS011;1456;51.840;12.184;2022-10-31T11:36:24;7.63;;;4.67;;
2892;SDS011;1456;51.840;12.184;2022-10-31T11:38:58;7.37;;;6.97;;
2892;SDS011;1456;51.840;12.184;2022-10-31T11:47:03;7.60;;;5.37;;
2892;SDS011;1456;51.840;12.184;2022-10-31T11:52:06;3.47;;;3.27;;
2892;SDS011;1456;51.840;12.184;2022-10-31T12:00:33;4.47;;;3.73;;
2892;SDS011;1456;51.840;12.184;2022-10-31T12:08:35;5.40;;;5.00;;
2892;SDS011;1456;51.840;12.184;2022-10-31T12:22:34;5.53;;;5.23;;
2892;SDS011;1456;51.840;12.184;2022-10-31T12:50:54;3.50;;;3.27;;
2892;SDS011;1456;51.840;12.184;2022-10-31T13:01:50;6.13;;;3.83;;
2892;SDS011;1456;51.840;12.184;2022-10-31T13:12:43;6.67;;;6.27;;
2892;SDS011;1456;51.840;12.184;2022-10-31T13:15:15;5.53;;;5.23;;
2892;SDS011;1456;51.840;12.184;2022-10-31T13:17:46;6.83;;;5.60;;
2892;SDS011;1456;51.840;12.184;2022-10-31T13:22:49;7.33;;;5.40;;
2892;SDS011;1456;51.840;12.184;2022-10-31T13:25:23;7.20;;;6.70;;
2892;SDS011;1456;51.840;12.184;2022-10-31T13:30:29;6.77;;;6.10;;
2892;SDS011;1456;51.840;12.184;2022-10-31T13:38:34;7.30;;;6.23;;
2892;SDS011;1456;51.840;12.184;2022-10-31T13:48:59;7.07;;;6.67;;
2892;SDS011;1456;51.840;12.184;2022-10-31T13:51:26;14.70;;;7.40;;
2892;SDS011;1456;51.840;12.184;2022-10-31T13:56:48;7.53;;;6.93;;
2892;SDS011;1456;51.840;12.184;2022-10-31T13:59:21;6.80;;;6.37;;
2892;SDS011;1456;51.840;12.184;2022-10-31T14:01:55;8.27;;;7.20;;
2892;SDS011;1456;51.840;12.184;2022-10-31T14:06:58;8.63;;;8.00;;
2892;SDS011;1456;51.840;12.184;2022-10-31T14:12:21;7.50;;;6.77;;
2892;SDS011;1456;51.840;12.184;2022-10-31T14:15:05;7.73;;;5.90;;
2892;SDS011;1456;51.840;12.184;2022-10-31T14:23:10;9.63;;;8.70;;
2892;SDS011;1456;51.840;12.184;2022-10-31T14:28:41;10.90;;;8.03;;
2892;SDS011;1456;51.840;12.184;2022-10-31T14:36:50;6.77;;;6.13;;
2892;SDS011;1456;51.840;12.184;2022-10-31T14:45:26;4.80;;;4.27;;
2892;SDS011;1456;51.840;12.184;2022-10-31T14:51:18;5.57;;;4.70;;
2892;SDS011;1456;51.840;12.184;2022-10-31T14:53:51;11.30;;;9.17;;
2892;SDS011;1456;51.840;12.184;2022-10-31T14:58:53;10.60;;;9.33;;
2892;SDS011;1456;51.840;12.184;2022-10-31T15:01:32;13.60;;;12.00;;
2892;SDS011;1456;51.840;12.184;2022-10-31T15:04:18;8.30;;;7.70;;
2892;SDS011;1456;51.840;12.184;2022-10-31T15:06:48;17.10;;;8.47;;
2892;SDS011;1456;51.840;12.184;2022-10-31T15:09:24;12.83;;;8.00;;
2892;SDS011;1456;51.840;12.184;2022-10-31T15:11:52;5.90;;;5.63;;
2892;SDS011;1456;51.840;12.184;2022-10-31T15:14:28;6.43;;;6.07;;
2892;SDS011;1456;51.840;12.184;2022-10-31T15:16:56;7.00;;;6.60;;
2892;SDS011;1456;51.840;12.184;2022-10-31T15:19:24;4.67;;;3.57;;
2892;SDS011;1456;51.840;12.184;2022-10-31T15:21:53;5.47;;;4.90;;
2892;SDS011;1456;51.840;12.184;2022-10-31T15:24:20;11.77;;;7.90;;
2892;SDS011;1456;51.840;12.184;2022-10-31T15:26:54;4.57;;;4.27;;
2892;SDS011;1456;51.840;12.184;2022-10-31T15:29:26;4.63;;;4.40;;
2892;SDS011;1456;51.840;12.184;2022-10-31T15:31:54;5.37;;;4.97;;
2892;SDS011;1456;51.840;12.184;2022-10-31T15:34:40;10.10;;;6.20;;
2892;SDS011;1456;51.840;12.184;2022-10-31T15:37:11;7.10;;;6.37;;
2892;SDS011;1456;51.840;12.184;2022-10-31T15:39:47;5.27;;;4.87;;
2892;SDS011;1456;51.840;12.184;2022-10-31T15:42:27;6.73;;;6.20;;
2892;SDS011;1456;51.840;12.184;2022-10-31T15:47:34;8.50;;;7.67;;
2892;SDS011;1456;51.840;12.184;2022-10-31T15:52:51;10.37;;;6.60;;
2892;SDS011;1456;51.840;12.184;2022-10-31T15:55:28;7.80;;;6.57;;
2892;SDS011;1456;51.840;12.184;2022-10-31T15:57:59;5.40;;;5.17;;
2892;SDS011;1456;51.840;12.184;2022-10-31T16:00:34;10.13;;;9.33;;
2892;SDS011;1456;51.840;12.184;2022-10-31T16:03:04;21.77;;;7.80;;
2892;SDS011;1456;51.840;12.184;2022-10-31T16:05:37;6.17;;;5.67;;
2892;SDS011;1456;51.840;12.184;2022-10-31T16:13:56;7.00;;;6.57;;
2892;SDS011;1456;51.840;12.184;2022-10-31T16:16:25;8.87;;;8.37;;
2892;SDS011;1456;51.840;12.184;2022-10-31T16:18:53;8.03;;;7.53;;
2892;SDS011;1456;51.840;12.184;2022-10-31T16:21:31;5.17;;;4.87;;
2892;SDS011;1456;51.840;12.184;2022-10-31T16:24:44;6.27;;;5.63;;
2892;SDS011;1456;51.840;12.184;2022-10-31T16:27:06;4.17;;;3.87;;
2892;SDS011;1456;51.840;12.184;2022-10-31T16:29:47;4.00;;;3.80;;
2892;SDS011;1456;51.840;12.184;2022-10-31T16:37:49;5.10;;;4.70;;
2892;SDS011;1456;51.840;12.184;2022-10-31T16:40:17;6.27;;;5.87;;
2892;SDS011;1456;51.840;12.184;2022-10-31T16:42:44;6.90;;;6.43;;
2892;SDS011;1456;51.840;12.184;2022-10-31T16:45:26;8.27;;;7.57;;
2892;SDS011;1456;51.840;12.184;2022-10-31T16:48:06;9.27;;;6.20;;
2892;SDS011;1456;51.840;12.184;2022-10-31T16:50:38;9.97;;;7.93;;
2892;SDS011;1456;51.840;12.184;2022-10-31T16:53:06;7.50;;;6.90;;
2892;SDS011;1456;51.840;12.184;2022-10-31T16:55:33;10.17;;;9.20;;
2892;SDS011;1456;51.840;12.184;2022-10-31T16:58:09;6.00;;;5.60;;
2892;SDS011;1456;51.840;12.184;2022-10-31T17:00:41;7.43;;;6.73;;
2892;SDS011;1456;51.840;12.184;2022-10-31T17:03:08;11.03;;;10.13;;
2892;SDS011;1456;51.840;12.184;2022-10-31T17:05:35;5.87;;;4.57;;
2892;SDS011;1456;51.840;12.184;2022-10-31T17:08:03;13.73;;;9.70;;
2892;SDS011;1456;51.840;12.184;2022-10-31T17:10:31;9.20;;;6.70;;
2892;SDS011;1456;51.840;12.184;2022-10-31T17:12:58;8.10;;;7.30;;
2892;SDS011;1456;51.840;12.184;2022-10-31T17:15:28;7.73;;;6.97;;
2892;SDS011;1456;51.840;12.184;2022-10-31T17:18:11;7.47;;;5.93;;
2892;SDS011;1456;51.840;12.184;2022-10-31T17:23:20;8.97;;;8.33;;
2892;SDS011;1456;51.840;12.184;2022-10-31T17:25:46;4.67;;;4.37;;
2892;SDS011;1456;51.840;12.184;2022-10-31T17:28:12;13.83;;;12.63;;
2892;SDS011;1456;51.840;12.184;2022-10-31T17:30:39;7.47;;;6.73;;
2892;SDS011;1456;51.840;12.184;2022-10-31T17:35:40;6.90;;;6.57;;
2892;SDS011;1456;51.840;12.184;2022-10-31T17:38:06;8.23;;;6.00;;
2892;SDS011;1456;51.840;12.184;2022-10-31T17:40:33;6.30;;;5.90;;
2892;SDS011;1456;51.840;12.184;2022-10-31T17:43:02;7.37;;;6.77;;
2892;SDS011;1456;51.840;12.184;2022-10-31T17:45:31;6.33;;;5.83;;
2892;SDS011;1456;51.840;12.184;2022-10-31T17:47:58;5.70;;;5.40;;
2892;SDS011;1456;51.840;12.184;2022-10-31T17:50:25;10.30;;;5.93;;
2892;SDS011;1456;51.840;12.184;2022-10-31T17:52:51;4.20;;;4.00;;
2892;SDS011;1456;51.840;12.184;2022-10-31T17:55:18;4.30;;;4.10;;
2892;SDS011;1456;51.840;12.184;2022-10-31T17:57:44;19.20;;;4.93;;
2892;SDS011;1456;51.840;12.184;2022-10-31T18:00:11;5.57;;;5.23;;
2892;SDS011;1456;51.840;12.184;2022-10-31T18:02:39;5.07;;;4.57;;
2892;SDS011;1456;51.840;12.184;2022-10-31T18:07:52;5.43;;;4.93;;
2892;SDS011;1456;51.840;12.184;2022-10-31T18:10:18;18.47;;;7.17;;
2892;SDS011;1456;51.840;12.184;2022-10-31T18:12:44;3.87;;;3.77;;
2892;SDS011;1456;51.840;12.184;2022-10-31T18:15:12;5.00;;;4.60;;
2892;SDS011;1456;51.840;12.184;2022-10-31T18:17:41;3.13;;;2.93;;
2892;SDS011;1456;51.840;12.184;2022-10-31T18:20:07;5.57;;;5.10;;
2892;SDS011;1456;51.840;12.184;2022-10-31T18:22:34;4.17;;;3.03;;
2892;SDS011;1456;51.840;12.184;2022-10-31T18:25:00;16.90;;;5.43;;
2892;SDS011;1456;51.840;12.184;2022-10-31T18:27:38;4.80;;;4.50;;
2892;SDS011;1456;51.840;12.184;2022-10-31T18:30:15;3.77;;;3.50;;
2892;SDS011;1456;51.840;12.184;2022-10-31T18:35:22;4.50;;;4.30;;
2892;SDS011;1456;51.840;12.184;2022-10-31T18:37:47;3.73;;;3.63;;
2892;SDS011;1456;51.840;12.184;2022-10-31T18:43:06;5.97;;;5.47;;
2892;SDS011;1456;51.840;12.184;2022-10-31T18:45:35;4.17;;;3.77;;
2892;SDS011;1456;51.840;12.184;2022-10-31T18:48:03;3.30;;;3.07;;
2892;SDS011;1456;51.840;12.184;2022-10-31T18:50:29;7.40;;;3.63;;
2892;SDS011;1456;51.840;12.184;2022-10-31T18:53:00;3.90;;;3.67;;
2892;SDS011;1456;51.840;12.184;2022-10-31T18:55:26;4.87;;;4.47;;
2892;SDS011;1456;51.840;12.184;2022-10-31T19:00:28;6.00;;;4.00;;
2892;SDS011;1456;51.840;12.184;2022-10-31T19:02:54;6.03;;;5.57;;
2892;SDS011;1456;51.840;12.184;2022-10-31T19:05:20;4.40;;;3.40;;
2892;SDS011;1456;51.840;12.184;2022-10-31T19:07:51;5.80;;;5.47;;
2892;SDS011;1456;51.840;12.184;2022-10-31T19:10:19;5.47;;;5.07;;
2892;SDS011;1456;51.840;12.184;2022-10-31T19:12:44;3.83;;;3.57;;
2892;SDS011;1456;51.840;12.184;2022-10-31T19:15:11;5.50;;;5.20;;
2892;SDS011;1456;51.840;12.184;2022-10-31T19:17:40;2.43;;;2.33;;
2892;SDS011;1456;51.840;12.184;2022-10-31T19:20:07;5.37;;;4.97;;
2892;SDS011;1456;51.840;12.184;2022-10-31T19:22:37;7.17;;;4.20;;
2892;SDS011;1456;51.840;12.184;2022-10-31T19:25:04;3.97;;;3.43;;
2892;SDS011;1456;51.840;12.184;2022-10-31T19:27:31;3.90;;;3.57;;
2892;SDS011;1456;51.840;12.184;2022-10-31T19:29:57;3.13;;;2.93;;
2892;SDS011;1456;51.840;12.184;2022-10-31T19:32:25;9.63;;;5.23;;
2892;SDS011;1456;51.840;12.184;2022-10-31T19:34:50;5.23;;;3.43;;
2892;SDS011;1456;51.840;12.184;2022-10-31T19:37:20;5.73;;;5.33;;
2892;SDS011;1456;51.840;12.184;2022-10-31T19:39:48;6.07;;;5.33;;
2892;SDS011;1456;51.840;12.184;2022-10-31T19:42:15;4.67;;;4.17;;
2892;SDS011;1456;51.840;12.184;2022-10-31T19:44:41;3.23;;;3.03;;
2892;SDS011;1456;51.840;12.184;2022-10-31T19:47:07;4.93;;;4.40;;
2892;SDS011;1456;51.840;12.184;2022-10-31T19:49:33;6.27;;;5.63;;
2892;SDS011;1456;51.840;12.184;2022-10-31T19:54:31;3.63;;;3.33;;
2892;SDS011;1456;51.840;12.184;2022-10-31T19:56:58;1.73;;;1.63;;
2892;SDS011;1456;51.840;12.184;2022-10-31T19:59:27;4.07;;;3.87;;
2892;SDS011;1456;51.840;12.184;2022-10-31T20:02:04;3.57;;;3.37;;
2892;SDS011;1456;51.840;12.184;2022-10-31T20:04:32;6.60;;;6.00;;
2892;SDS011;1456;51.840;12.184;2022-10-31T20:07:01;8.40;;;6.90;;
2892;SDS011;1456;51.840;12.184;2022-10-31T20:09:34;5.33;;;5.07;;
2892;SDS011;1456;51.840;12.184;2022-10-31T20:12:04;4.77;;;4.37;;
2892;SDS011;1456;51.840;12.184;2022-10-31T20:14:42;6.13;;;4.90;;
2892;SDS011;1456;51.840;12.184;2022-10-31T20:17:17;5.07;;;4.60;;
2892;SDS011;1456;51.840;12.184;2022-10-31T20:22:20;6.53;;;5.93;;
2892;SDS011;1456;51.840;12.184;2022-10-31T20:27:14;4.60;;;4.20;;
2892;SDS011;1456;51.840;12.184;2022-10-31T20:29:42;2.30;;;2.20;;
2892;SDS011;1456;51.840;12.184;2022-10-31T20:32:09;3.63;;;3.53;;